Time;durP1;ratioP1;P1;durP2;ratioP2;P2;SDS_P1;SDS_P2;PMS_P1;PMS_P2;Temp;Humidity;BMP_temperature;BMP_pressure;BME280_temperature;BME280_humidity;BME280_pressure;Samples;Min_cycle;Max_cycle;Signal;HPM_P1;HPM_P2
2023/12/14 00:00:24;;;;;;;7.32;4.72;;;;;;;6.82;84.26;99299.88;2533824;28;20041;-79
2023/12/14 00:01:39;;;;;;;9.32;5.78;;;;;;;6.83;84.41;99292.94;2533670;28;20076;-78
2023/12/14 00:02:55;;;;;;;10.80;5.47;;;;;;;6.84;84.38;99302.44;2533840;28;20052;-79
2023/12/14 00:04:08;;;;;;;10.35;5.93;;;;;;;6.85;84.47;99304.16;2534253;28;20049;-79
2023/12/14 00:05:23;;;;;;;7.22;5.25;;;;;;;6.85;84.40;99298.97;2534102;28;20430;-79
2023/12/14 00:06:36;;;;;;;5.63;5.03;;;;;;;6.85;84.58;99304.16;2534143;28;20101;-78
2023/12/14 00:07:51;;;;;;;12.70;5.88;;;;;;;6.84;84.43;99297.25;2533520;28;20053;-79
2023/12/14 00:09:04;;;;;;;8.95;7.28;;;;;;;6.82;84.44;99306.81;2545656;22;20033;-81
2023/12/14 00:10:18;;;;;;;10.00;6.63;;;;;;;6.80;84.41;99295.59;2526070;28;20050;-82
2023/12/14 00:11:32;;;;;;;9.07;5.78;;;;;;;6.74;84.31;99305.19;2530161;28;20048;-80
2023/12/14 00:12:48;;;;;;;9.48;6.85;;;;;;;6.73;84.37;99297.41;2530689;28;20398;-82
2023/12/14 00:14:02;;;;;;;7.72;4.90;;;;;;;6.71;84.35;99302.63;2526498;28;20045;-80
2023/12/14 00:15:17;;;;;;;9.82;6.28;;;;;;;6.69;84.30;99300.94;2516931;28;20081;-81
2023/12/14 00:16:31;;;;;;;7.32;5.78;;;;;;;6.68;84.33;99309.59;2526262;28;20046;-82
2023/12/14 00:17:45;;;;;;;12.13;6.90;;;;;;;6.66;84.53;99303.56;2525555;28;20120;-82
2023/12/14 00:19:00;;;;;;;10.40;6.65;;;;;;;6.66;84.40;99313.94;2525746;28;20047;-83
2023/12/14 00:20:15;;;;;;;10.10;6.10;;;;;;;6.63;84.64;99304.47;2525036;28;20046;-81
2023/12/14 00:21:28;;;;;;;12.15;6.50;;;;;;;6.62;84.45;99318.31;2525907;28;20042;-83
2023/12/14 00:22:43;;;;;;;12.82;8.07;;;;;;;6.61;84.58;99315.72;2526424;28;20053;-82
2023/12/14 00:23:56;;;;;;;8.35;6.55;;;;;;;6.61;84.47;99323.50;2526071;28;20038;-83
2023/12/14 00:25:10;;;;;;;13.88;7.78;;;;;;;6.60;84.68;99317.47;2525842;28;20049;-83
2023/12/14 00:26:24;;;;;;;12.25;8.48;;;;;;;6.60;84.65;99321.81;2525558;28;20069;-82
2023/12/14 00:27:38;;;;;;;12.90;7.40;;;;;;;6.59;84.69;99325.28;2526052;28;20422;-82
2023/12/14 00:28:52;;;;;;;10.00;7.53;;;;;;;6.58;84.71;99321.81;2526618;28;20400;-82
2023/12/14 00:30:08;;;;;;;13.65;7.85;;;;;;;6.58;84.74;99327.00;2536031;28;20109;-82
2023/12/14 00:31:21;;;;;;;9.95;7.97;;;;;;;6.58;84.56;99333.91;2525897;28;20045;-83
2023/12/14 00:32:35;;;;;;;14.13;7.32;;;;;;;6.55;84.54;99337.41;2528427;28;20049;-82
2023/12/14 00:33:49;;;;;;;11.68;8.00;;;;;;;6.54;84.81;99336.56;2526172;28;20486;-82
2023/12/14 00:35:05;;;;;;;15.07;7.43;;;;;;;6.53;84.76;99329.69;2526629;28;20159;-83
2023/12/14 00:36:19;;;;;;;13.80;7.90;;;;;;;6.52;84.78;99338.31;2526904;28;20103;-83
2023/12/14 00:37:33;;;;;;;14.95;8.00;;;;;;;6.54;84.95;99338.31;2527457;28;20042;-84
2023/12/14 00:38:47;;;;;;;12.82;7.90;;;;;;;6.53;84.89;99332.28;2526904;28;20046;-85
2023/12/14 00:40:02;;;;;;;14.65;10.02;;;;;;;6.52;84.99;99335.72;2527739;28;20052;-83
2023/12/14 00:41:15;;;;;;;11.20;8.45;;;;;;;6.53;85.11;99340.03;2528345;28;20128;-83
2023/12/14 00:42:29;;;;;;;13.77;8.98;;;;;;;6.54;84.97;99341.75;2529890;28;20050;-83
2023/12/14 00:43:43;;;;;;;13.15;9.32;;;;;;;6.56;85.20;99339.16;2528785;28;20049;-82
2023/12/14 00:44:57;;;;;;;16.05;10.40;;;;;;;6.58;85.04;99341.69;2529286;28;20046;-83
2023/12/14 00:46:11;;;;;;;13.48;9.77;;;;;;;6.59;85.18;99348.63;2528345;28;20045;-82
2023/12/14 00:47:25;;;;;;;16.67;10.32;;;;;;;6.61;85.30;99344.25;2528090;28;20046;-82
2023/12/14 00:48:39;;;;;;;15.75;9.63;;;;;;;6.63;85.32;99350.28;2527901;28;20045;-81
2023/12/14 00:49:53;;;;;;;11.93;9.35;;;;;;;6.64;85.41;99352.84;2527120;28;20517;-80
2023/12/14 00:51:08;;;;;;;12.43;9.40;;;;;;;6.66;85.23;99351.09;2527627;28;20502;-81
2023/12/14 00:52:22;;;;;;;14.77;10.80;;;;;;;6.67;85.35;99352.81;2528050;28;20467;-82
2023/12/14 00:53:36;;;;;;;18.15;10.07;;;;;;;6.69;85.46;99360.56;2528329;28;20072;-82
2023/12/14 00:54:50;;;;;;;14.02;10.23;;;;;;;6.68;85.51;99362.28;2527343;28;20490;-80
2023/12/14 00:56:04;;;;;;;14.82;10.40;;;;;;;6.70;85.52;99365.72;2527341;28;20046;-82
2023/12/14 00:57:18;;;;;;;18.25;10.93;;;;;;;6.72;85.46;99366.56;2527608;28;20065;-82
2023/12/14 00:58:31;;;;;;;20.70;12.48;;;;;;;6.72;85.30;99365.72;2528383;28;20054;-83
2023/12/14 00:59:46;;;;;;;17.77;11.63;;;;;;;6.74;85.53;99375.19;2526639;28;20056;-81
2023/12/14 01:00:59;;;;;;;21.02;11.70;;;;;;;6.75;85.64;99374.28;2528007;28;20426;-82
2023/12/14 01:02:14;;;;;;;20.92;12.57;;;;;;;6.78;85.71;99378.59;2527150;28;20042;-82
2023/12/14 01:03:27;;;;;;;21.15;12.57;;;;;;;6.81;85.67;99386.31;2527759;28;20038;-82
2023/12/14 01:04:42;;;;;;;17.38;11.38;;;;;;;6.81;85.83;99391.50;2527645;28;20426;-81
2023/12/14 01:05:56;;;;;;;19.48;11.10;;;;;;;6.83;85.79;99389.75;2528214;28;20103;-82
2023/12/14 01:07:12;;;;;;;16.30;11.60;;;;;;;6.86;85.83;99394.88;2528610;28;25288;-82
2023/12/14 01:08:25;;;;;;;16.85;10.50;;;;;;;6.89;85.85;99399.19;2528939;28;20050;-82
2023/12/14 01:09:39;;;;;;;15.20;11.18;;;;;;;6.91;85.81;99395.69;2528143;28;20532;-81
2023/12/14 01:10:53;;;;;;;18.55;11.38;;;;;;;6.92;85.93;99394.81;2527612;28;20057;-82
2023/12/14 01:12:07;;;;;;;21.38;14.25;;;;;;;6.94;85.86;99407.75;2526861;28;20045;-81
2023/12/14 01:13:21;;;;;;;19.13;12.35;;;;;;;6.94;85.67;99405.16;2519100;28;20065;-83
2023/12/14 01:14:35;;;;;;;15.98;11.88;;;;;;;6.95;85.85;99410.34;2525801;28;20407;-82
2023/12/14 01:15:49;;;;;;;21.38;11.90;;;;;;;6.98;85.92;99404.25;2524882;28;20415;-83
2023/12/14 01:17:03;;;;;;;18.13;12.15;;;;;;;7.01;85.96;99409.38;2526141;28;20056;-83
2023/12/14 01:18:17;;;;;;;21.20;14.13;;;;;;;7.01;85.96;99411.13;2525244;28;20046;-82
2023/12/14 01:19:31;;;;;;;17.35;12.13;;;;;;;7.02;85.99;99410.25;2525514;28;20045;-83
2023/12/14 01:20:44;;;;;;;21.83;13.80;;;;;;;7.02;85.91;99413.69;2524918;28;20437;-82
2023/12/14 01:21:59;;;;;;;15.00;11.75;;;;;;;7.03;85.89;99415.41;2526033;28;20042;-82
2023/12/14 01:23:14;;;;;;;21.08;12.45;;;;;;;7.05;86.16;99413.66;2524882;28;20073;-83
2023/12/14 01:24:28;;;;;;;19.33;11.85;;;;;;;7.06;85.92;99417.13;2525733;28;20053;-82
2023/12/14 01:25:41;;;;;;;20.17;11.07;;;;;;;7.06;86.06;99420.56;2525184;28;20456;-83
2023/12/14 01:26:56;;;;;;;15.90;11.40;;;;;;;7.07;86.05;99411.88;2525080;28;20056;-82
2023/12/14 01:28:09;;;;;;;18.88;12.75;;;;;;;7.08;86.01;99417.97;2525154;28;20046;-82
2023/12/14 01:29:24;;;;;;;16.67;12.43;;;;;;;7.09;85.93;99417.06;2525761;28;20057;-82
2023/12/14 01:30:37;;;;;;;17.00;11.13;;;;;;;7.10;86.00;99424.84;2524762;28;20050;-82
2023/12/14 01:31:52;;;;;;;18.85;12.40;;;;;;;7.11;86.01;99425.69;2525009;28;20056;-83
2023/12/14 01:33:05;;;;;;;20.00;11.65;;;;;;;7.10;86.07;99426.56;2526297;28;20046;-84
2023/12/14 01:34:19;;;;;;;19.58;12.80;;;;;;;7.10;86.08;99429.16;2527858;28;20049;-83
2023/12/14 01:35:33;;;;;;;15.05;11.05;;;;;;;7.10;85.89;99427.44;2527661;28;20049;-83
2023/12/14 01:36:47;;;;;;;15.77;12.43;;;;;;;7.11;85.90;99429.13;2527881;28;20048;-82
2023/12/14 01:38:01;;;;;;;20.85;11.13;;;;;;;7.11;86.09;99430.88;2528030;28;20053;-82
2023/12/14 01:39:16;;;;;;;20.70;12.27;;;;;;;7.13;86.09;99429.13;2526279;28;20038;-83
2023/12/14 01:40:30;;;;;;;17.95;11.75;;;;;;;7.15;86.10;99437.72;2528466;28;20042;-84
2023/12/14 01:41:44;;;;;;;16.88;12.63;;;;;;;7.15;86.00;99441.19;2527545;28;20044;-83
2023/12/14 01:43:06;;;;;;;16.27;11.50;;;;;;;7.14;85.91;99442.06;2527450;28;20049;-82
2023/12/14 01:44:21;;;;;;;16.52;11.82;;;;;;;7.15;85.77;99442.91;2527007;28;20041;-83
2023/12/14 01:45:34;;;;;;;17.00;11.85;;;;;;;7.14;86.03;99447.25;2528416;28;20053;-82
2023/12/14 01:46:48;;;;;;;21.00;11.65;;;;;;;7.13;85.91;99440.34;2527105;28;20046;-82
2023/12/14 01:48:02;;;;;;;17.05;11.68;;;;;;;7.16;86.00;99452.44;2527070;28;20042;-82
2023/12/14 01:49:16;;;;;;;19.52;12.07;;;;;;;7.17;85.87;99451.53;2527571;28;20048;-81
2023/12/14 01:50:30;;;;;;;14.50;10.57;;;;;;;7.17;86.01;99454.97;2528024;28;20053;-82
2023/12/14 01:51:44;;;;;;;19.38;12.32;;;;;;;7.17;86.01;99456.72;2527335;28;20053;-82
2023/12/14 01:52:58;;;;;;;15.57;10.50;;;;;;;7.16;85.96;99455.88;2528194;28;20045;-83
2023/12/14 01:54:12;;;;;;;17.83;10.75;;;;;;;7.15;85.70;99459.38;2526932;28;20048;-83
2023/12/14 01:55:27;;;;;;;15.27;10.60;;;;;;;7.15;85.73;99463.66;2527609;28;20065;-83
2023/12/14 01:56:41;;;;;;;13.23;8.88;;;;;;;7.14;85.86;99456.78;2527686;28;20057;-82
2023/12/14 01:57:55;;;;;;;15.07;11.30;;;;;;;7.14;85.69;99461.97;2528021;28;20411;-83
2023/12/14 01:59:09;;;;;;;16.02;10.93;;;;;;;7.14;85.71;99461.97;2527132;28;20128;-82
2023/12/14 02:00:35;;;;;;;17.38;11.98;;;;;;;7.13;85.81;99458.53;2520074;28;20050;-83
2023/12/14 02:01:55;;;;;;;12.80;9.20;;;;;;;7.12;85.73;99468.91;2528131;28;20046;-82
2023/12/14 02:03:09;;;;;;;15.70;10.73;;;;;;;7.12;85.82;99469.75;2527294;28;20073;-82
2023/12/14 02:04:24;;;;;;;16.98;10.80;;;;;;;7.11;85.65;99468.06;2518814;28;20042;-81
2023/12/14 02:05:38;;;;;;;14.70;10.23;;;;;;;7.11;85.75;99473.25;2526945;28;20050;-84
2023/12/14 02:06:52;;;;;;;13.43;11.20;;;;;;;7.09;85.80;99472.41;2525459;28;20042;-84
2023/12/14 02:08:05;;;;;;;14.02;11.25;;;;;;;7.09;85.58;99474.16;2525851;28;20442;-82
2023/12/14 02:09:20;;;;;;;14.60;9.70;;;;;;;7.08;85.82;99481.06;2526198;28;20045;-81
2023/12/14 02:10:35;;;;;;;19.15;10.35;;;;;;;7.06;85.57;99475.03;2525826;28;20046;-81
2023/12/14 02:11:49;;;;;;;12.35;11.00;;;;;;;7.06;85.88;99474.19;2526658;28;20099;-82
2023/12/14 02:13:03;;;;;;;14.25;9.77;;;;;;;7.05;85.58;99478.53;2526026;28;20077;-82
2023/12/14 02:14:17;;;;;;;13.45;9.85;;;;;;;7.06;85.68;99474.19;2526070;28;20042;-83
2023/12/14 02:15:31;;;;;;;14.63;9.65;;;;;;;7.05;85.98;99478.53;2524787;28;20058;-80
2023/12/14 02:16:45;;;;;;;14.43;10.35;;;;;;;7.06;85.78;99469.00;2525497;28;20042;-83
2023/12/14 02:17:58;;;;;;;17.25;11.77;;;;;;;7.06;85.88;99476.78;2524895;28;20053;-83
2023/12/14 02:19:13;;;;;;;14.50;11.65;;;;;;;7.06;85.63;99476.78;2525113;28;20041;-83
2023/12/14 02:20:26;;;;;;;15.30;9.70;;;;;;;7.05;85.82;99485.44;2524804;28;20537;-82
2023/12/14 02:21:41;;;;;;;14.27;9.88;;;;;;;7.05;85.85;99478.53;2525286;28;20066;-82
2023/12/14 02:22:56;;;;;;;14.48;10.38;;;;;;;7.06;85.69;99484.56;2524307;28;20041;-82
2023/12/14 02:24:11;;;;;;;16.00;10.57;;;;;;;7.05;85.91;99483.72;2525856;28;20049;-81
2023/12/14 02:25:24;;;;;;;13.13;10.15;;;;;;;7.05;85.76;99488.03;2517216;28;20055;-82
2023/12/14 02:26:38;;;;;;;13.50;10.40;;;;;;;7.05;85.82;99485.44;2526303;28;20046;-82
2023/12/14 02:27:52;;;;;;;15.15;10.85;;;;;;;7.05;85.87;99488.03;2524881;28;20049;-81
2023/12/14 02:29:06;;;;;;;12.75;9.75;;;;;;;7.05;85.78;99490.63;2525990;28;20038;-83
2023/12/14 02:30:20;;;;;;;14.15;10.15;;;;;;;7.04;85.84;99491.50;2528001;28;20046;-82
2023/12/14 02:31:34;;;;;;;17.13;10.52;;;;;;;7.05;85.89;99490.63;2524320;28;20052;-82
2023/12/14 02:32:48;;;;;;;14.60;11.13;;;;;;;7.07;85.92;99494.06;2525548;28;20498;-81
2023/12/14 02:34:02;;;;;;;16.10;10.40;;;;;;;7.08;85.93;99495.78;2525417;28;20050;-81
2023/12/14 02:35:18;;;;;;;17.48;10.85;;;;;;;7.09;85.86;99489.72;2525081;28;20045;-81
2023/12/14 02:36:32;;;;;;;16.23;10.95;;;;;;;7.09;85.71;99502.69;2524928;28;20049;-81
2023/12/14 02:37:45;;;;;;;19.00;12.02;;;;;;;7.10;85.81;99499.19;2526275;28;20046;-82
2023/12/14 02:39:01;;;;;;;15.23;11.32;;;;;;;7.10;85.77;99496.59;2525016;28;20041;-82
2023/12/14 02:40:15;;;;;;;15.60;13.32;;;;;;;7.10;85.99;99499.19;2524786;28;20407;-83
2023/12/14 02:41:29;;;;;;;14.25;10.95;;;;;;;7.11;86.09;99498.34;2523746;28;20061;-83
2023/12/14 02:42:42;;;;;;;22.30;12.10;;;;;;;7.09;85.82;99497.50;2525233;28;20676;-82
2023/12/14 02:43:57;;;;;;;20.38;11.05;;;;;;;7.09;85.75;99507.88;2524687;28;20075;-82
2023/12/14 02:45:10;;;;;;;20.38;13.18;;;;;;;7.08;85.85;99511.34;2525185;28;20052;-82
2023/12/14 02:46:25;;;;;;;18.08;11.32;;;;;;;7.08;85.77;99511.34;2524935;28;20050;-81
2023/12/14 02:47:38;;;;;;;17.65;11.90;;;;;;;7.07;85.97;99507.88;2525215;28;20224;-82
2023/12/14 02:48:53;;;;;;;14.30;11.85;;;;;;;7.07;85.68;99518.25;2525289;28;20049;-82
2023/12/14 02:50:07;;;;;;;18.10;12.90;;;;;;;7.07;85.87;99513.06;2526146;28;20057;-82
2023/12/14 02:51:21;;;;;;;23.08;13.57;;;;;;;7.09;85.84;99520.84;2524836;28;20172;-82
2023/12/14 02:52:35;;;;;;;19.15;13.18;;;;;;;7.09;85.81;99524.28;2525646;28;20046;-82
2023/12/14 02:53:49;;;;;;;19.27;12.48;;;;;;;7.10;85.99;99523.44;2525674;28;20046;-82
2023/12/14 02:55:05;;;;;;;25.95;14.73;;;;;;;7.11;85.94;99521.69;2525491;28;20112;-83
2023/12/14 02:56:19;;;;;;;18.40;13.55;;;;;;;7.12;85.80;99524.25;2525096;28;20050;-82
2023/12/14 02:57:33;;;;;;;18.92;12.45;;;;;;;7.13;86.01;99523.38;2525286;28;20779;-82
2023/12/14 02:58:51;;;;;;;17.40;13.25;;;;;;;7.15;86.00;99525.94;2525201;28;20057;-83
2023/12/14 03:00:05;;;;;;;21.45;14.90;;;;;;;7.15;86.09;99537.19;2525322;28;20048;-83
2023/12/14 03:01:21;;;;;;;22.38;13.40;;;;;;;7.15;85.83;99537.19;2526145;28;20061;-85
2023/12/14 03:02:34;;;;;;;24.77;14.93;;;;;;;7.16;86.00;99538.91;2525504;28;20103;-83
2023/12/14 03:03:49;;;;;;;34.10;14.95;;;;;;;7.16;86.16;99533.72;2521461;28;20053;-83
2023/12/14 03:05:02;;;;;;;22.33;13.77;;;;;;;7.17;86.12;99532.81;2515045;28;20054;-83
2023/12/14 03:06:17;;;;;;;22.88;13.93;;;;;;;7.18;86.11;99534.56;2516932;28;20057;-81
2023/12/14 03:07:30;;;;;;;19.08;14.27;;;;;;;7.20;86.02;99543.19;2517701;28;20046;-81
2023/12/14 03:08:44;;;;;;;28.60;16.23;;;;;;;7.22;86.10;99548.34;2518100;28;20052;-80
2023/12/14 03:09:58;;;;;;;23.67;15.73;;;;;;;7.22;86.10;99546.59;2517038;28;20046;-83
2023/12/14 03:11:23;;;;;;;30.63;17.40;;;;;;;7.25;86.26;99550.91;2515912;28;20048;-82
2023/12/14 03:12:36;;;;;;;28.85;17.52;;;;;;;7.26;86.05;99554.38;2509811;28;20054;-81
2023/12/14 03:13:51;;;;;;;27.00;16.42;;;;;;;7.25;86.02;99552.63;2516219;28;20046;-82
2023/12/14 03:15:05;;;;;;;24.55;15.88;;;;;;;7.24;86.11;99556.97;2516230;28;20061;-81
2023/12/14 03:16:19;;;;;;;25.13;16.85;;;;;;;7.22;86.11;99554.38;2524798;28;20073;-81
2023/12/14 03:17:33;;;;;;;25.65;16.48;;;;;;;7.25;86.10;99561.28;2524635;28;20046;-81
2023/12/14 03:18:52;;;;;;;24.83;15.15;;;;;;;7.25;86.03;99558.69;2524739;28;20053;-82
2023/12/14 03:20:07;;;;;;;26.85;15.43;;;;;;;7.26;85.99;99555.22;2523519;28;20046;-81
2023/12/14 03:21:21;;;;;;;26.88;17.80;;;;;;;7.27;86.10;99556.94;2524721;28;20084;-82
2023/12/14 03:22:35;;;;;;;23.92;15.65;;;;;;;7.29;86.12;99560.38;2524735;28;20475;-82
2023/12/14 03:23:49;;;;;;;25.17;16.35;;;;;;;7.28;86.19;99557.78;2516829;28;20046;-82
2023/12/14 03:25:03;;;;;;;26.75;16.08;;;;;;;7.26;85.98;99565.59;2514389;28;20053;-82
2023/12/14 03:26:18;;;;;;;29.80;16.27;;;;;;;7.27;86.15;99562.13;2515195;28;20109;-83
2023/12/14 03:27:32;;;;;;;25.30;16.40;;;;;;;7.29;86.42;99565.56;2514504;28;20134;-82
2023/12/14 03:28:47;;;;;;;26.67;16.65;;;;;;;7.31;86.12;99569.00;2514813;28;20105;-82
2023/12/14 03:30:00;;;;;;;33.00;18.17;;;;;;;7.33;86.33;99569.84;2517223;28;20051;-82
2023/12/14 03:31:15;;;;;;;32.88;17.20;;;;;;;7.35;86.16;99570.66;2516856;28;20046;-81
2023/12/14 03:32:28;;;;;;;28.73;16.95;;;;;;;7.38;86.34;99573.25;2509624;28;20468;-82
2023/12/14 03:33:43;;;;;;;23.67;14.50;;;;;;;7.40;86.19;99570.63;2516785;28;20111;-83
2023/12/14 03:34:57;;;;;;;24.65;17.00;;;;;;;7.42;86.13;99574.06;2515648;28;20050;-82
2023/12/14 03:36:12;;;;;;;33.75;17.42;;;;;;;7.44;86.30;99574.91;2515515;28;20093;-82
2023/12/14 03:37:25;;;;;;;25.75;15.55;;;;;;;7.45;86.28;99575.75;2516931;28;20050;-83
2023/12/14 03:38:40;;;;;;;29.23;17.63;;;;;;;7.47;86.11;99586.97;2515534;28;20105;-81
2023/12/14 03:39:53;;;;;;;29.05;17.08;;;;;;;7.47;86.18;99585.25;2515129;28;20053;-82
2023/12/14 03:41:08;;;;;;;24.90;15.98;;;;;;;7.49;86.23;99583.50;2514482;28;20050;-82
2023/12/14 03:42:21;;;;;;;27.25;16.75;;;;;;;7.51;86.20;99591.22;2514949;28;20050;-82
2023/12/14 03:43:37;;;;;;;34.03;18.10;;;;;;;7.52;86.23;99598.16;2514465;28;20058;-83
2023/12/14 03:44:50;;;;;;;26.88;15.52;;;;;;;7.51;86.16;99589.53;2514689;28;20480;-84
2023/12/14 03:46:06;;;;;;;31.15;16.35;;;;;;;7.51;86.13;99596.44;2515351;28;20046;-83
2023/12/14 03:47:19;;;;;;;32.13;17.45;;;;;;;7.51;86.03;99597.31;2515448;28;20072;-83
2023/12/14 03:48:33;;;;;;;28.65;18.17;;;;;;;7.51;86.07;99599.91;2515800;28;20113;-82
2023/12/14 03:49:49;;;;;;;25.63;16.88;;;;;;;7.53;86.24;99599.88;2516682;28;20046;-84
2023/12/14 03:51:04;;;;;;;26.67;16.90;;;;;;;7.56;86.23;99605.00;2516107;28;20066;-82
2023/12/14 03:52:18;;;;;;;27.77;16.02;;;;;;;7.56;86.41;99607.63;2515624;28;20088;-82
2023/12/14 03:53:32;;;;;;;35.40;18.10;;;;;;;7.58;86.29;99608.47;2515679;28;20054;-82
2023/12/14 03:54:45;;;;;;;31.35;16.20;;;;;;;7.59;86.19;99611.03;2515781;28;20046;-82
2023/12/14 03:56:00;;;;;;;26.73;18.00;;;;;;;7.59;86.24;99615.34;2516565;28;20052;-84
2023/12/14 03:57:14;;;;;;;28.83;17.40;;;;;;;7.59;86.20;99617.94;2516668;28;20046;-81
2023/12/14 03:58:28;;;;;;;25.38;15.73;;;;;;;7.58;86.15;99619.69;2517637;28;20483;-84
2023/12/14 03:59:43;;;;;;;33.78;16.33;;;;;;;7.59;86.37;99628.34;2516633;28;20466;-84
2023/12/14 04:00:58;;;;;;;27.65;17.17;;;;;;;7.61;86.10;99624.00;2517274;28;20074;-82
2023/12/14 04:02:11;;;;;;;32.10;17.02;;;;;;;7.62;86.31;99625.72;2516433;28;20043;-83
2023/12/14 04:03:27;;;;;;;24.00;15.25;;;;;;;7.63;85.99;99627.44;2516951;28;20101;-83
2023/12/14 04:04:40;;;;;;;33.65;16.48;;;;;;;7.65;86.13;99631.72;2521821;28;20050;-83
2023/12/14 04:05:55;;;;;;;29.60;17.70;;;;;;;7.64;86.26;99629.13;2516793;28;20050;-83
2023/12/14 04:07:08;;;;;;;31.23;15.80;;;;;;;7.64;86.21;99636.94;2516224;28;20078;-83
2023/12/14 04:08:22;;;;;;;26.63;16.75;;;;;;;7.66;85.88;99640.38;2516662;28;20105;-84
2023/12/14 04:09:36;;;;;;;25.35;15.73;;;;;;;7.65;86.05;99638.66;2516805;28;20054;-82
2023/12/14 04:10:50;;;;;;;28.15;16.77;;;;;;;7.66;86.12;99642.97;2517818;28;20110;-82
2023/12/14 04:12:05;;;;;;;29.13;18.17;;;;;;;7.66;86.12;99640.38;2525345;28;20045;-82
2023/12/14 04:13:18;;;;;;;27.98;15.80;;;;;;;7.68;86.07;99642.97;2527205;28;20053;-83
2023/12/14 04:14:33;;;;;;;29.38;16.02;;;;;;;7.67;86.06;99646.41;2527637;28;20078;-82
2023/12/14 04:15:47;;;;;;;28.90;16.08;;;;;;;7.68;86.08;99648.16;2527710;28;20037;-83
2023/12/14 04:17:02;;;;;;;27.13;17.15;;;;;;;7.68;85.89;99650.75;2527069;28;20061;-83
2023/12/14 04:18:15;;;;;;;27.10;17.10;;;;;;;7.69;86.08;99647.25;2525664;28;20069;-84
2023/12/14 04:19:30;;;;;;;31.77;16.85;;;;;;;7.70;86.10;99649.84;2525675;28;20053;-81
2023/12/14 04:20:43;;;;;;;33.78;19.13;;;;;;;7.68;85.92;99650.75;2525912;28;20057;-82
2023/12/14 04:21:57;;;;;;;36.38;19.40;;;;;;;7.66;85.91;99650.75;2525688;28;20053;-82
2023/12/14 04:23:11;;;;;;;32.22;17.02;;;;;;;7.66;85.72;99653.34;2525378;28;20104;-82
2023/12/14 04:24:25;;;;;;;26.05;15.88;;;;;;;7.67;85.73;99659.41;2526280;28;20603;-82
2023/12/14 04:25:39;;;;;;;30.15;17.73;;;;;;;7.64;85.75;99655.09;2525032;28;20046;-83
2023/12/14 04:26:53;;;;;;;26.45;17.02;;;;;;;7.65;85.98;99656.84;2525287;28;20050;-82
2023/12/14 04:28:06;;;;;;;28.83;15.45;;;;;;;7.64;85.92;99663.78;2524770;28;20384;-82
2023/12/14 04:29:21;;;;;;;26.52;15.93;;;;;;;7.64;85.94;99661.19;2525038;28;20064;-81
2023/12/14 04:30:34;;;;;;;26.80;16.83;;;;;;;7.64;85.84;99655.09;2524614;28;20050;-81
2023/12/14 04:31:50;;;;;;;37.85;16.08;;;;;;;7.64;85.90;99661.19;2524537;28;20074;-83
2023/12/14 04:33:04;;;;;;;26.58;16.48;;;;;;;7.64;85.73;99668.09;2524929;28;20045;-83
2023/12/14 04:34:18;;;;;;;27.73;16.17;;;;;;;7.63;85.79;99661.19;2526062;28;20057;-82
2023/12/14 04:35:36;;;;;;;29.20;17.77;;;;;;;7.61;85.74;99668.97;2525629;28;20120;-82
2023/12/14 04:36:50;;;;;;;30.75;17.55;;;;;;;7.61;85.75;99662.94;2527164;28;20519;-82
2023/12/14 04:38:04;;;;;;;27.92;17.27;;;;;;;7.60;85.84;99669.88;2527134;28;20049;-82
2023/12/14 04:39:18;;;;;;;27.92;16.75;;;;;;;7.60;85.80;99676.81;2526826;28;20396;-82
2023/12/14 04:40:32;;;;;;;28.17;16.40;;;;;;;7.60;85.75;99674.22;2526816;28;20054;-82
2023/12/14 04:41:48;;;;;;;27.48;17.58;;;;;;;7.60;85.82;99676.81;2527144;28;20073;-81
2023/12/14 04:43:01;;;;;;;28.23;17.48;;;;;;;7.58;85.43;99679.41;2526895;28;20050;-82
2023/12/14 04:44:15;;;;;;;32.80;17.98;;;;;;;7.57;85.75;99684.66;2527169;28;20038;-81
2023/12/14 04:45:29;;;;;;;25.77;16.80;;;;;;;7.56;85.69;99683.78;2526962;28;20050;-82
2023/12/14 04:46:43;;;;;;;33.72;19.98;;;;;;;7.58;85.57;99694.13;2526967;28;20572;-82
2023/12/14 04:47:58;;;;;;;32.47;17.10;;;;;;;7.59;85.52;99693.25;2526751;28;20046;-82
2023/12/14 04:49:12;;;;;;;33.78;18.50;;;;;;;7.59;85.78;99698.44;2526009;28;20122;-83
2023/12/14 04:50:26;;;;;;;32.88;17.90;;;;;;;7.59;85.80;99694.13;2526579;28;20431;-84
2023/12/14 04:51:40;;;;;;;33.33;18.38;;;;;;;7.60;85.90;99702.78;2525358;28;20042;-83
2023/12/14 04:52:54;;;;;;;33.00;16.30;;;;;;;7.60;85.82;99703.63;2526504;28;20156;-84
2023/12/14 04:54:09;;;;;;;27.75;16.80;;;;;;;7.60;85.66;99703.63;2526503;28;20045;-84
2023/12/14 04:55:22;;;;;;;31.65;17.13;;;;;;;7.62;85.68;99706.22;2526202;28;20045;-83
2023/12/14 04:56:37;;;;;;;27.67;17.63;;;;;;;7.62;85.77;99708.81;2525961;28;20053;-83
2023/12/14 04:57:50;;;;;;;31.13;17.20;;;;;;;7.60;85.83;99705.38;2526331;28;20042;-82
2023/12/14 04:59:05;;;;;;;32.05;17.42;;;;;;;7.59;85.64;99714.91;2525768;28;20078;-83
2023/12/14 05:00:18;;;;;;;27.83;17.05;;;;;;;7.58;85.86;99707.13;2526685;28;20042;-82
2023/12/14 05:01:33;;;;;;;27.77;17.98;;;;;;;7.57;85.41;99708.88;2526151;28;20437;-82
2023/12/14 05:02:48;;;;;;;26.55;16.33;;;;;;;7.58;85.71;99709.72;2527211;28;20042;-82
2023/12/14 05:04:04;;;;;;;28.02;16.48;;;;;;;7.57;85.68;99719.25;2526676;28;20177;-82
2023/12/14 05:05:17;;;;;;;28.25;18.50;;;;;;;7.59;85.82;99724.41;2527152;28;20056;-83
2023/12/14 05:06:33;;;;;;;30.58;16.77;;;;;;;7.58;85.74;99720.97;2526522;28;20072;-82
2023/12/14 05:07:47;;;;;;;29.73;17.42;;;;;;;7.59;85.95;99721.81;2525468;28;20503;-82
2023/12/14 05:09:04;;;;;;;28.85;15.98;;;;;;;7.58;85.72;99728.75;2525580;28;20052;-81
2023/12/14 05:10:17;;;;;;;30.27;16.05;;;;;;;7.59;85.55;99734.78;2526362;28;20042;-82
2023/12/14 05:11:32;;;;;;;36.65;17.30;;;;;;;7.57;85.83;99734.84;2525801;28;20116;-83
2023/12/14 05:12:46;;;;;;;24.55;15.82;;;;;;;7.55;85.70;99731.38;2526307;28;20411;-83
2023/12/14 05:14:03;;;;;;;35.33;18.70;;;;;;;7.54;85.76;99740.06;2530027;28;20045;-82
2023/12/14 05:15:16;;;;;;;28.52;17.40;;;;;;;7.54;85.72;99744.41;2527282;28;20056;-82
2023/12/14 05:16:31;;;;;;;28.75;16.65;;;;;;;7.54;85.72;99739.22;2528292;28;20084;-82
2023/12/14 05:17:45;;;;;;;29.85;17.23;;;;;;;7.52;85.82;99743.56;2526346;28;20052;-82
2023/12/14 05:18:59;;;;;;;29.33;16.10;;;;;;;7.53;85.72;99747.84;2527535;28;20050;-83
2023/12/14 05:20:14;;;;;;;28.67;17.55;;;;;;;7.55;85.84;99753.91;2528405;28;20462;-82
2023/12/14 05:21:28;;;;;;;29.73;17.02;;;;;;;7.53;85.74;99753.91;2527459;28;20050;-82
2023/12/14 05:22:43;;;;;;;35.03;18.40;;;;;;;7.50;85.59;99755.69;2526657;28;20475;-82
2023/12/14 05:23:56;;;;;;;31.48;17.85;;;;;;;7.50;86.05;99764.34;2526297;28;20041;-83
2023/12/14 05:25:11;;;;;;;27.92;15.95;;;;;;;7.49;85.72;99760.03;2526657;28;20073;-82
2023/12/14 05:26:24;;;;;;;27.60;16.85;;;;;;;7.50;85.66;99761.72;2527739;28;20431;-84
2023/12/14 05:27:38;;;;;;;32.05;18.63;;;;;;;7.51;85.54;99762.59;2526750;28;20141;-82
2023/12/14 05:28:52;;;;;;;33.95;18.20;;;;;;;7.51;85.78;99767.78;2526464;28;20054;-84
2023/12/14 05:30:08;;;;;;;33.90;17.48;;;;;;;7.50;85.84;99766.06;2526651;28;20056;-84
2023/12/14 05:31:21;;;;;;;27.88;17.67;;;;;;;7.47;85.60;99771.31;2526341;28;20053;-84
2023/12/14 05:32:36;;;;;;;31.50;17.80;;;;;;;7.46;85.83;99774.75;2527436;28;20050;-83
2023/12/14 05:33:49;;;;;;;31.10;18.60;;;;;;;7.46;85.80;99774.75;2526463;28;20046;-80
2023/12/14 05:35:04;;;;;;;30.63;16.83;;;;;;;7.45;85.87;99776.50;2527271;28;20046;-82
2023/12/14 05:36:19;;;;;;;32.10;18.92;;;;;;;7.47;85.89;99782.53;2526621;28;20541;-81
2023/12/14 05:37:33;;;;;;;28.98;17.83;;;;;;;7.49;85.74;99790.31;2526481;28;20517;-83
2023/12/14 05:38:47;;;;;;;29.05;17.85;;;;;;;7.48;85.83;99786.00;2526179;28;20057;-82
2023/12/14 05:40:01;;;;;;;31.35;18.52;;;;;;;7.48;85.72;99794.63;2526590;28;20042;-83
2023/12/14 05:41:15;;;;;;;32.45;18.67;;;;;;;7.50;85.99;99792.03;2526560;28;20096;-82
2023/12/14 05:42:30;;;;;;;27.35;16.90;;;;;;;7.50;85.83;99792.03;2527324;28;20422;-81
2023/12/14 05:43:43;;;;;;;32.88;17.10;;;;;;;7.51;86.02;99796.34;2526230;28;20499;-82
2023/12/14 05:44:57;;;;;;;31.25;19.02;;;;;;;7.52;85.96;99795.47;2527110;28;20048;-83
2023/12/14 05:46:20;;;;;;;31.40;20.00;;;;;;;7.53;85.91;99797.19;2526137;28;20049;-82